GLG1638 SEGU-SEGS
Flight info
| Callsign | GLG1638 |
|---|---|
| Flight time | 1h 36m |
| Altitude | 34000 |
| Route | ASOSI3A ASOSI UW17 SCV |
| Aircraft | A320/M-SDE3FGHIRWY/LB1 |
Departure
| Time | 2026-04-29 10:53 |
|---|---|
| Airport | José Joaquín de Olmedo International Airport (SEGU) |
Arrival
| Time | 2026-04-29 12:29 |
|---|---|
| Airport | Seymour Galapagos Ecological Airport (SEGS) |
| Time | Latitude | Longitude | Altitude | Speed | Heading |
|---|---|---|---|---|---|
| 2026-04-29 10:28 | -2.14848 | -79.88309 | 29 ft | 0 kts | 300° |
| 2026-04-29 10:46 | -2.14850 | -79.88306 | 28 ft | 3 kts | 300° |
| 2026-04-29 10:46 | -2.14865 | -79.88284 | 28 ft | 4 kts | 310° |
| 2026-04-29 10:46 | -2.14884 | -79.88266 | 29 ft | 4 kts | 339° |
| 2026-04-29 10:46 | -2.14903 | -79.88265 | 29 ft | 1 kts | 30° |
| 2026-04-29 10:47 | -2.14904 | -79.88265 | 29 ft | 0 kts | 30° |
| 2026-04-29 10:49 | -2.14895 | -79.88260 | 29 ft | 4 kts | 30° |
| 2026-04-29 10:49 | -2.14869 | -79.88245 | 29 ft | 8 kts | 30° |
| 2026-04-29 10:49 | -2.14802 | -79.88207 | 28 ft | 10 kts | 31° |
| 2026-04-29 10:50 | -2.14788 | -79.88159 | 29 ft | 7 kts | 105° |
| 2026-04-29 10:50 | -2.14820 | -79.88099 | 29 ft | 10 kts | 120° |
| 2026-04-29 10:50 | -2.14832 | -79.88039 | 29 ft | 10 kts | 67° |
| 2026-04-29 10:50 | -2.14759 | -79.87990 | 29 ft | 13 kts | 30° |
| 2026-04-29 10:51 | -2.14687 | -79.87947 | 29 ft | 11 kts | 33° |
| 2026-04-29 10:51 | -2.14650 | -79.87886 | 28 ft | 10 kts | 72° |
| 2026-04-29 10:51 | -2.14633 | -79.87823 | 28 ft | 10 kts | 78° |
| 2026-04-29 10:51 | -2.14650 | -79.87762 | 28 ft | 9 kts | 136° |
| 2026-04-29 10:52 | -2.14715 | -79.87775 | 27 ft | 12 kts | 212° |
| 2026-04-29 10:52 | -2.14834 | -79.87844 | 28 ft | 44 kts | 210° |
| 2026-04-29 10:52 | -2.15310 | -79.88117 | 28 ft | 111 kts | 210° |
| 2026-04-29 10:52 | -2.16141 | -79.88596 | 45 ft | 160 kts | 210° |
| 2026-04-29 10:53 | -2.17100 | -79.89140 | 638 ft | 158 kts | 210° |
| 2026-04-29 10:53 | -2.18068 | -79.89677 | 1235 ft | 160 kts | 210° |
| 2026-04-29 10:53 | -2.19052 | -79.90223 | 1792 ft | 166 kts | 210° |
| 2026-04-29 10:53 | -2.20122 | -79.90823 | 2057 ft | 187 kts | 211° |
| 2026-04-29 10:54 | -2.21039 | -79.91798 | 2308 ft | 207 kts | 250° |
| 2026-04-29 10:54 | -2.21206 | -79.93302 | 2509 ft | 232 kts | 270° |
| 2026-04-29 10:54 | -2.21114 | -79.94977 | 2856 ft | 255 kts | 274° |
| 2026-04-29 10:54 | -2.20962 | -79.96787 | 3507 ft | 265 kts | 275° |
| 2026-04-29 10:55 | -2.20808 | -79.98638 | 4279 ft | 270 kts | 274° |
| 2026-04-29 10:55 | -2.20674 | -80.00528 | 5042 ft | 275 kts | 274° |
| 2026-04-29 10:55 | -2.20561 | -80.02452 | 5787 ft | 280 kts | 273° |
| 2026-04-29 10:55 | -2.20461 | -80.04408 | 6524 ft | 284 kts | 273° |
| 2026-04-29 10:56 | -2.20370 | -80.06396 | 7214 ft | 288 kts | 272° |
| 2026-04-29 10:56 | -2.20282 | -80.08410 | 7945 ft | 292 kts | 273° |
| 2026-04-29 10:56 | -2.20196 | -80.10454 | 8665 ft | 295 kts | 272° |
| 2026-04-29 10:56 | -2.20112 | -80.12516 | 9379 ft | 299 kts | 272° |
| 2026-04-29 10:57 | -2.20029 | -80.14607 | 10018 ft | 304 kts | 272° |
| 2026-04-29 10:57 | -2.19941 | -80.16796 | 10225 ft | 326 kts | 272° |
| 2026-04-29 10:57 | -2.19845 | -80.19140 | 10404 ft | 347 kts | 272° |
| 2026-04-29 10:57 | -2.19744 | -80.21585 | 10872 ft | 355 kts | 272° |
| 2026-04-29 10:58 | -2.19642 | -80.24070 | 11472 ft | 359 kts | 272° |
| 2026-04-29 10:58 | -2.19539 | -80.26576 | 12087 ft | 362 kts | 272° |
| 2026-04-29 10:58 | -2.19434 | -80.29103 | 12693 ft | 366 kts | 272° |
| 2026-04-29 10:58 | -2.19327 | -80.31654 | 13295 ft | 369 kts | 272° |
| 2026-04-29 10:59 | -2.19222 | -80.34231 | 13851 ft | 373 kts | 272° |
| 2026-04-29 10:59 | -2.19118 | -80.36801 | 14357 ft | 376 kts | 272° |
| 2026-04-29 10:59 | -2.19013 | -80.39425 | 14865 ft | 379 kts | 272° |
| 2026-04-29 10:59 | -2.18905 | -80.42071 | 15370 ft | 382 kts | 272° |
| 2026-04-29 11:00 | -2.18794 | -80.44737 | 15866 ft | 385 kts | 272° |
| 2026-04-29 11:00 | -2.18680 | -80.47423 | 16359 ft | 388 kts | 272° |
| 2026-04-29 11:00 | -2.18566 | -80.50133 | 16848 ft | 392 kts | 272° |
| 2026-04-29 11:00 | -2.18468 | -80.52867 | 17332 ft | 395 kts | 269° |
| 2026-04-29 11:01 | -2.18646 | -80.55613 | 17809 ft | 398 kts | 265° |
| 2026-04-29 11:01 | -2.18883 | -80.58381 | 18275 ft | 401 kts | 265° |
| 2026-04-29 11:01 | -2.19124 | -80.61170 | 18698 ft | 404 kts | 265° |
| 2026-04-29 11:01 | -2.19365 | -80.63976 | 19121 ft | 407 kts | 265° |
| 2026-04-29 11:02 | -2.19606 | -80.66802 | 19547 ft | 409 kts | 265° |
| 2026-04-29 11:02 | -2.19849 | -80.69643 | 19990 ft | 411 kts | 265° |
| 2026-04-29 11:02 | -2.20092 | -80.72500 | 20432 ft | 413 kts | 265° |
| 2026-04-29 11:02 | -2.20334 | -80.75373 | 20861 ft | 416 kts | 265° |
| 2026-04-29 11:03 | -2.20576 | -80.78270 | 21268 ft | 419 kts | 265° |
| 2026-04-29 11:03 | -2.20822 | -80.81184 | 21710 ft | 421 kts | 264° |
| 2026-04-29 11:03 | -2.21072 | -80.84112 | 22150 ft | 423 kts | 264° |
| 2026-04-29 11:03 | -2.21318 | -80.87009 | 22542 ft | 425 kts | 264° |
| 2026-04-29 11:04 | -2.21569 | -80.89969 | 22935 ft | 428 kts | 264° |
| 2026-04-29 11:04 | -2.21820 | -80.92942 | 23338 ft | 430 kts | 264° |
| 2026-04-29 11:04 | -2.22030 | -80.95923 | 23717 ft | 431 kts | 269° |
| 2026-04-29 11:04 | -2.21830 | -80.98921 | 24036 ft | 434 kts | 278° |
| 2026-04-29 11:05 | -2.21273 | -81.01888 | 24354 ft | 435 kts | 280° |
| 2026-04-29 11:05 | -2.20701 | -81.04870 | 24648 ft | 437 kts | 280° |
| 2026-04-29 11:05 | -2.20130 | -81.07859 | 24968 ft | 438 kts | 280° |
| 2026-04-29 11:05 | -2.19561 | -81.10866 | 25273 ft | 440 kts | 280° |
| 2026-04-29 11:06 | -2.19010 | -81.13789 | 25572 ft | 441 kts | 280° |
| 2026-04-29 11:06 | -2.18442 | -81.16804 | 25858 ft | 442 kts | 280° |
| 2026-04-29 11:06 | -2.17868 | -81.19827 | 26143 ft | 444 kts | 280° |
| 2026-04-29 11:06 | -2.17290 | -81.22869 | 26411 ft | 445 kts | 280° |
| 2026-04-29 11:07 | -2.16711 | -81.25920 | 26687 ft | 447 kts | 280° |
| 2026-04-29 11:07 | -2.16142 | -81.28931 | 26954 ft | 448 kts | 280° |
| 2026-04-29 11:07 | -2.15563 | -81.31995 | 27244 ft | 448 kts | 279° |
| 2026-04-29 11:07 | -2.14984 | -81.35061 | 27527 ft | 449 kts | 279° |
| 2026-04-29 11:08 | -2.14404 | -81.38136 | 27791 ft | 450 kts | 278° |
| 2026-04-29 11:08 | -2.13820 | -81.41216 | 28046 ft | 452 kts | 278° |
| 2026-04-29 11:08 | -2.13233 | -81.44304 | 28286 ft | 453 kts | 279° |
| 2026-04-29 11:08 | -2.12644 | -81.47404 | 28523 ft | 455 kts | 279° |
| 2026-04-29 11:09 | -2.12055 | -81.50517 | 28740 ft | 456 kts | 279° |
| 2026-04-29 11:09 | -2.11464 | -81.53644 | 28979 ft | 457 kts | 279° |
| 2026-04-29 11:09 | -2.10871 | -81.56771 | 29204 ft | 458 kts | 278° |
| 2026-04-29 11:09 | -2.10274 | -81.59902 | 29430 ft | 460 kts | 279° |
| 2026-04-29 11:10 | -2.09674 | -81.63046 | 29632 ft | 461 kts | 279° |
| 2026-04-29 11:10 | -2.09071 | -81.66202 | 29829 ft | 463 kts | 279° |
| 2026-04-29 11:10 | -2.08469 | -81.69366 | 29999 ft | 464 kts | 278° |
| 2026-04-29 11:10 | -2.07867 | -81.72539 | 30155 ft | 466 kts | 278° |
| 2026-04-29 11:11 | -2.07263 | -81.75729 | 30312 ft | 467 kts | 278° |
| 2026-04-29 11:11 | -2.06659 | -81.78913 | 30473 ft | 467 kts | 278° |
| 2026-04-29 11:11 | -2.06052 | -81.82114 | 30631 ft | 468 kts | 278° |
| 2026-04-29 11:11 | -2.05444 | -81.85319 | 30837 ft | 468 kts | 278° |
| 2026-04-29 11:12 | -2.04860 | -81.88512 | 31073 ft | 466 kts | 276° |
| 2026-04-29 11:12 | -2.04369 | -81.91671 | 31300 ft | 465 kts | 275° |
| 2026-04-29 11:12 | -2.03943 | -81.94871 | 31532 ft | 464 kts | 274° |
| 2026-04-29 11:12 | -2.03557 | -81.98063 | 31771 ft | 463 kts | 273° |
| 2026-04-29 11:13 | -2.03178 | -82.01256 | 32007 ft | 462 kts | 273° |
| 2026-04-29 11:13 | -2.02917 | -82.03411 | 32171 ft | 461 kts | 273° |
| 2026-04-29 11:13 | -2.02516 | -82.06587 | 32413 ft | 461 kts | 273° |
| 2026-04-29 11:13 | -2.02100 | -82.09764 | 32656 ft | 460 kts | 273° |
| 2026-04-29 11:14 | -2.01674 | -82.12931 | 32901 ft | 459 kts | 273° |
| 2026-04-29 11:14 | -2.01250 | -82.16051 | 33150 ft | 458 kts | 273° |
| 2026-04-29 11:14 | -2.00818 | -82.19206 | 33401 ft | 457 kts | 273° |
| 2026-04-29 11:14 | -2.00389 | -82.22356 | 33644 ft | 456 kts | 272° |
| 2026-04-29 11:15 | -1.99962 | -82.25499 | 33853 ft | 456 kts | 272° |
| 2026-04-29 11:15 | -1.99120 | -82.31732 | 33901 ft | 449 kts | 272° |
| 2026-04-29 11:16 | -1.98293 | -82.37936 | 33902 ft | 454 kts | 272° |
| 2026-04-29 11:16 | -1.97454 | -82.44237 | 33901 ft | 460 kts | 271° |
| 2026-04-29 11:17 | -1.96598 | -82.50585 | 33898 ft | 461 kts | 272° |
| 2026-04-29 11:17 | -1.95739 | -82.56938 | 33897 ft | 461 kts | 272° |
| 2026-04-29 11:18 | -1.94886 | -82.63294 | 33898 ft | 461 kts | 271° |
| 2026-04-29 11:18 | -1.94044 | -82.69654 | 33899 ft | 461 kts | 271° |
| 2026-04-29 11:19 | -1.93200 | -82.76007 | 33903 ft | 461 kts | 271° |
| 2026-04-29 11:19 | -1.92351 | -82.82322 | 33895 ft | 462 kts | 272° |
| 2026-04-29 11:20 | -1.91495 | -82.88692 | 33890 ft | 462 kts | 272° |
| 2026-04-29 11:20 | -1.90641 | -82.95063 | 33888 ft | 463 kts | 272° |
| 2026-04-29 11:21 | -1.89791 | -83.01444 | 33889 ft | 463 kts | 272° |
| 2026-04-29 11:21 | -1.88936 | -83.07833 | 33891 ft | 463 kts | 272° |
| 2026-04-29 11:22 | -1.88082 | -83.14214 | 33890 ft | 463 kts | 271° |
| 2026-04-29 11:22 | -1.87235 | -83.20603 | 33888 ft | 464 kts | 272° |
| 2026-04-29 11:23 | -1.86382 | -83.27005 | 33894 ft | 464 kts | 272° |
| 2026-04-29 11:23 | -1.85523 | -83.33407 | 33892 ft | 465 kts | 272° |
| 2026-04-29 11:24 | -1.84652 | -83.39811 | 33890 ft | 465 kts | 272° |
| 2026-04-29 11:24 | -1.83789 | -83.46221 | 33892 ft | 465 kts | 272° |
| 2026-04-29 11:25 | -1.82941 | -83.52594 | 33893 ft | 465 kts | 272° |
| 2026-04-29 11:25 | -1.82083 | -83.59005 | 33891 ft | 465 kts | 272° |
| 2026-04-29 11:26 | -1.80794 | -83.68630 | 33895 ft | 465 kts | 272° |
| 2026-04-29 11:26 | -1.79934 | -83.75038 | 33895 ft | 465 kts | 272° |
| 2026-04-29 11:27 | -1.79073 | -83.81455 | 33895 ft | 465 kts | 272° |
| 2026-04-29 11:27 | -1.78213 | -83.87867 | 33896 ft | 465 kts | 272° |
| 2026-04-29 11:28 | -1.77356 | -83.94277 | 33895 ft | 465 kts | 272° |
| 2026-04-29 11:28 | -1.76493 | -84.00689 | 33899 ft | 465 kts | 272° |
| 2026-04-29 11:29 | -1.75631 | -84.07090 | 33898 ft | 465 kts | 272° |
| 2026-04-29 11:29 | -1.74775 | -84.13448 | 33897 ft | 465 kts | 272° |
| 2026-04-29 11:30 | -1.73911 | -84.19852 | 33900 ft | 465 kts | 272° |
| 2026-04-29 11:30 | -1.73054 | -84.26249 | 33898 ft | 464 kts | 272° |
| 2026-04-29 11:31 | -1.72198 | -84.32645 | 33898 ft | 464 kts | 272° |
| 2026-04-29 11:31 | -1.71337 | -84.39045 | 33898 ft | 464 kts | 272° |
| 2026-04-29 11:32 | -1.70482 | -84.45438 | 33897 ft | 464 kts | 272° |
| 2026-04-29 11:32 | -1.69616 | -84.51836 | 33894 ft | 464 kts | 272° |
| 2026-04-29 11:33 | -1.68758 | -84.58233 | 33893 ft | 464 kts | 272° |
| 2026-04-29 11:33 | -1.67895 | -84.64628 | 33891 ft | 464 kts | 272° |
| 2026-04-29 11:34 | -1.67037 | -84.71017 | 33895 ft | 464 kts | 273° |
| 2026-04-29 11:34 | -1.66186 | -84.77408 | 33897 ft | 464 kts | 273° |
| 2026-04-29 11:35 | -1.65332 | -84.83791 | 33896 ft | 463 kts | 273° |
| 2026-04-29 11:35 | -1.64479 | -84.90139 | 33897 ft | 463 kts | 273° |
| 2026-04-29 11:36 | -1.63625 | -84.96522 | 33899 ft | 463 kts | 273° |
| 2026-04-29 11:36 | -1.62758 | -85.02899 | 33897 ft | 463 kts | 273° |
| 2026-04-29 11:37 | -1.61895 | -85.09280 | 33901 ft | 463 kts | 274° |
| 2026-04-29 11:37 | -1.61037 | -85.15652 | 33902 ft | 462 kts | 274° |
| 2026-04-29 11:38 | -1.60180 | -85.22013 | 33900 ft | 462 kts | 274° |
| 2026-04-29 11:38 | -1.59340 | -85.28370 | 33899 ft | 461 kts | 273° |
| 2026-04-29 11:39 | -1.58500 | -85.34729 | 33899 ft | 461 kts | 274° |
| 2026-04-29 11:39 | -1.57643 | -85.41080 | 33895 ft | 461 kts | 274° |
| 2026-04-29 11:40 | -1.56795 | -85.47395 | 33893 ft | 461 kts | 274° |
| 2026-04-29 11:40 | -1.55948 | -85.53747 | 33894 ft | 461 kts | 274° |
| 2026-04-29 11:41 | -1.55097 | -85.60093 | 33890 ft | 461 kts | 274° |
| 2026-04-29 11:41 | -1.54246 | -85.66438 | 33887 ft | 461 kts | 274° |
| 2026-04-29 11:42 | -1.53391 | -85.72787 | 33893 ft | 461 kts | 274° |
| 2026-04-29 11:42 | -1.52542 | -85.79131 | 33891 ft | 461 kts | 274° |
| 2026-04-29 11:43 | -1.51695 | -85.85479 | 33887 ft | 461 kts | 274° |
| 2026-04-29 11:43 | -1.50849 | -85.91828 | 33880 ft | 461 kts | 274° |
| 2026-04-29 11:44 | -1.49997 | -85.98170 | 33882 ft | 461 kts | 274° |
| 2026-04-29 11:44 | -1.49151 | -86.04481 | 33882 ft | 461 kts | 274° |
| 2026-04-29 11:45 | -1.48294 | -86.10824 | 33884 ft | 461 kts | 274° |
| 2026-04-29 11:45 | -1.47446 | -86.17175 | 33886 ft | 461 kts | 274° |
| 2026-04-29 11:46 | -1.46592 | -86.23523 | 33890 ft | 460 kts | 275° |
| 2026-04-29 11:46 | -1.45733 | -86.29864 | 33891 ft | 460 kts | 274° |
| 2026-04-29 11:47 | -1.44881 | -86.36196 | 33892 ft | 460 kts | 274° |
| 2026-04-29 11:47 | -1.44036 | -86.42528 | 33891 ft | 460 kts | 274° |
| 2026-04-29 11:48 | -1.43195 | -86.48856 | 33887 ft | 459 kts | 274° |
| 2026-04-29 11:48 | -1.42349 | -86.55191 | 33886 ft | 459 kts | 274° |
| 2026-04-29 11:49 | -1.41496 | -86.61522 | 33888 ft | 459 kts | 275° |
| 2026-04-29 11:49 | -1.40652 | -86.67836 | 33890 ft | 458 kts | 275° |
| 2026-04-29 11:50 | -1.39817 | -86.74101 | 33898 ft | 458 kts | 275° |
| 2026-04-29 11:50 | -1.38974 | -86.80411 | 33896 ft | 458 kts | 275° |
| 2026-04-29 11:51 | -1.38128 | -86.86714 | 33891 ft | 457 kts | 275° |
| 2026-04-29 11:51 | -1.37277 | -86.93028 | 33889 ft | 457 kts | 275° |
| 2026-04-29 11:52 | -1.36435 | -86.99323 | 33893 ft | 457 kts | 275° |
| 2026-04-29 11:52 | -1.35590 | -87.05605 | 33898 ft | 456 kts | 275° |
| 2026-04-29 11:53 | -1.34745 | -87.11888 | 33895 ft | 456 kts | 275° |
| 2026-04-29 11:53 | -1.33906 | -87.18163 | 33894 ft | 455 kts | 275° |
| 2026-04-29 11:54 | -1.33073 | -87.24434 | 33894 ft | 455 kts | 275° |
| 2026-04-29 11:54 | -1.32232 | -87.30700 | 33892 ft | 455 kts | 275° |
| 2026-04-29 11:55 | -1.31386 | -87.36963 | 33895 ft | 454 kts | 275° |
| 2026-04-29 11:55 | -1.30546 | -87.43179 | 33897 ft | 454 kts | 275° |
| 2026-04-29 11:56 | -1.29708 | -87.49419 | 33897 ft | 453 kts | 275° |
| 2026-04-29 11:56 | -1.28871 | -87.55655 | 33896 ft | 453 kts | 275° |
| 2026-04-29 11:57 | -1.28038 | -87.61891 | 33897 ft | 452 kts | 275° |
| 2026-04-29 11:57 | -1.27197 | -87.68127 | 33894 ft | 452 kts | 275° |
| 2026-04-29 11:58 | -1.26365 | -87.74355 | 33894 ft | 452 kts | 275° |
| 2026-04-29 11:58 | -1.25539 | -87.80527 | 33900 ft | 451 kts | 275° |
| 2026-04-29 11:59 | -1.24709 | -87.86726 | 33898 ft | 450 kts | 275° |
| 2026-04-29 11:59 | -1.23731 | -87.92904 | 33896 ft | 451 kts | 278° |
| 2026-04-29 12:00 | -1.22482 | -87.99040 | 33893 ft | 451 kts | 279° |
| 2026-04-29 12:00 | -1.21191 | -88.05167 | 33893 ft | 450 kts | 279° |
| 2026-04-29 12:01 | -1.19973 | -88.11301 | 33892 ft | 450 kts | 278° |
| 2026-04-29 12:01 | -1.18801 | -88.17442 | 33890 ft | 449 kts | 278° |
| 2026-04-29 12:02 | -1.17822 | -88.22539 | 33885 ft | 449 kts | 278° |
| 2026-04-29 12:02 | -1.16630 | -88.28666 | 33888 ft | 449 kts | 278° |
| 2026-04-29 12:03 | -1.15423 | -88.34787 | 33889 ft | 449 kts | 278° |
| 2026-04-29 12:03 | -1.14221 | -88.40915 | 33887 ft | 449 kts | 278° |
| 2026-04-29 12:04 | -1.13025 | -88.47043 | 33873 ft | 450 kts | 278° |
| 2026-04-29 12:04 | -1.11834 | -88.53147 | 33872 ft | 450 kts | 278° |
| 2026-04-29 12:05 | -1.10639 | -88.59295 | 33873 ft | 450 kts | 278° |
| 2026-04-29 12:05 | -1.09441 | -88.65443 | 33874 ft | 451 kts | 278° |
| 2026-04-29 12:06 | -1.08243 | -88.71595 | 33877 ft | 451 kts | 278° |
| 2026-04-29 12:06 | -1.07035 | -88.77744 | 33877 ft | 451 kts | 278° |
| 2026-04-29 12:07 | -1.05829 | -88.83892 | 33877 ft | 451 kts | 278° |
| 2026-04-29 12:07 | -1.04631 | -88.90045 | 33880 ft | 451 kts | 278° |
| 2026-04-29 12:08 | -1.03448 | -88.96151 | 33883 ft | 450 kts | 278° |
| 2026-04-29 12:08 | -1.02250 | -89.02296 | 33883 ft | 450 kts | 278° |
| 2026-04-29 12:09 | -1.01654 | -89.05369 | 33731 ft | 451 kts | 278° |
| 2026-04-29 12:09 | -1.01056 | -89.08448 | 33474 ft | 452 kts | 278° |
| 2026-04-29 12:09 | -1.00454 | -89.11533 | 32701 ft | 455 kts | 278° |
| 2026-04-29 12:09 | -0.99842 | -89.14660 | 31684 ft | 460 kts | 278° |
| 2026-04-29 12:10 | -0.99219 | -89.17815 | 30705 ft | 465 kts | 278° |
| 2026-04-29 12:10 | -0.98589 | -89.21013 | 29535 ft | 473 kts | 277° |
| 2026-04-29 12:10 | -0.97956 | -89.24261 | 28355 ft | 478 kts | 278° |
| 2026-04-29 12:10 | -0.97319 | -89.27533 | 27340 ft | 480 kts | 278° |
| 2026-04-29 12:11 | -0.96686 | -89.30779 | 26702 ft | 473 kts | 279° |
| 2026-04-29 12:11 | -0.96057 | -89.33996 | 25934 ft | 469 kts | 279° |
| 2026-04-29 12:11 | -0.95435 | -89.37185 | 25204 ft | 466 kts | 279° |
| 2026-04-29 12:11 | -0.94815 | -89.40353 | 24481 ft | 464 kts | 280° |
| 2026-04-29 12:12 | -0.94196 | -89.43512 | 23764 ft | 462 kts | 280° |
| 2026-04-29 12:12 | -0.93581 | -89.46652 | 22980 ft | 460 kts | 281° |
| 2026-04-29 12:12 | -0.92970 | -89.49775 | 22303 ft | 456 kts | 281° |
| 2026-04-29 12:12 | -0.92370 | -89.52834 | 21645 ft | 452 kts | 281° |
| 2026-04-29 12:13 | -0.91761 | -89.55944 | 21003 ft | 448 kts | 281° |
| 2026-04-29 12:13 | -0.91159 | -89.58945 | 20398 ft | 444 kts | 284° |
| 2026-04-29 12:13 | -0.90195 | -89.61857 | 19800 ft | 440 kts | 294° |
| 2026-04-29 12:13 | -0.88756 | -89.64539 | 19259 ft | 435 kts | 304° |
| 2026-04-29 12:14 | -0.87042 | -89.67012 | 18722 ft | 431 kts | 306° |
| 2026-04-29 12:14 | -0.85338 | -89.69457 | 18222 ft | 427 kts | 306° |
| 2026-04-29 12:14 | -0.83648 | -89.71888 | 17663 ft | 423 kts | 306° |
| 2026-04-29 12:14 | -0.81981 | -89.74288 | 17165 ft | 418 kts | 306° |
| 2026-04-29 12:15 | -0.80326 | -89.76668 | 16656 ft | 414 kts | 306° |
| 2026-04-29 12:15 | -0.78690 | -89.79020 | 16139 ft | 411 kts | 306° |
| 2026-04-29 12:15 | -0.77061 | -89.81357 | 15617 ft | 408 kts | 306° |
| 2026-04-29 12:15 | -0.75447 | -89.83673 | 15084 ft | 405 kts | 306° |
| 2026-04-29 12:16 | -0.73839 | -89.85983 | 14532 ft | 403 kts | 306° |
| 2026-04-29 12:16 | -0.72241 | -89.88284 | 13978 ft | 402 kts | 306° |
| 2026-04-29 12:16 | -0.70651 | -89.90579 | 13371 ft | 401 kts | 306° |
| 2026-04-29 12:16 | -0.69068 | -89.92862 | 12785 ft | 398 kts | 306° |
| 2026-04-29 12:17 | -0.67498 | -89.95123 | 12184 ft | 395 kts | 306° |
| 2026-04-29 12:17 | -0.65936 | -89.97369 | 11597 ft | 392 kts | 306° |
| 2026-04-29 12:17 | -0.64385 | -89.99596 | 11001 ft | 389 kts | 306° |
| 2026-04-29 12:17 | -0.62853 | -90.01798 | 10652 ft | 379 kts | 306° |
| 2026-04-29 12:18 | -0.61402 | -90.03889 | 10523 ft | 363 kts | 306° |
| 2026-04-29 12:18 | -0.59973 | -90.05947 | 10409 ft | 349 kts | 306° |
| 2026-04-29 12:18 | -0.58614 | -90.07901 | 10288 ft | 336 kts | 306° |
| 2026-04-29 12:18 | -0.57318 | -90.09756 | 10178 ft | 324 kts | 306° |
| 2026-04-29 12:19 | -0.56050 | -90.11568 | 10049 ft | 313 kts | 306° |
| 2026-04-29 12:19 | -0.54815 | -90.13338 | 9850 ft | 307 kts | 306° |
| 2026-04-29 12:19 | -0.53584 | -90.15104 | 9348 ft | 311 kts | 306° |
| 2026-04-29 12:19 | -0.52363 | -90.16855 | 8803 ft | 305 kts | 306° |
| 2026-04-29 12:20 | -0.51149 | -90.18595 | 8330 ft | 306 kts | 306° |
| 2026-04-29 12:20 | -0.49931 | -90.20341 | 7849 ft | 305 kts | 306° |
| 2026-04-29 12:20 | -0.48729 | -90.22070 | 7421 ft | 299 kts | 306° |
| 2026-04-29 12:20 | -0.47556 | -90.23762 | 6835 ft | 295 kts | 306° |
| 2026-04-29 12:21 | -0.46396 | -90.25434 | 6333 ft | 290 kts | 304° |
| 2026-04-29 12:21 | -0.45437 | -90.27191 | 5824 ft | 288 kts | 296° |
| 2026-04-29 12:21 | -0.44555 | -90.28976 | 5348 ft | 285 kts | 296° |
| 2026-04-29 12:21 | -0.43670 | -90.30760 | 4884 ft | 288 kts | 296° |
| 2026-04-29 12:22 | -0.42788 | -90.32540 | 4426 ft | 284 kts | 296° |
| 2026-04-29 12:22 | -0.41934 | -90.34258 | 4283 ft | 267 kts | 296° |
| 2026-04-29 12:22 | -0.41129 | -90.35875 | 4209 ft | 255 kts | 295° |
| 2026-04-29 12:22 | -0.40357 | -90.37431 | 4158 ft | 252 kts | 295° |
| 2026-04-29 12:23 | -0.39582 | -90.38993 | 4095 ft | 249 kts | 295° |
| 2026-04-29 12:23 | -0.38821 | -90.40530 | 3980 ft | 242 kts | 295° |
| 2026-04-29 12:23 | -0.38057 | -90.42004 | 3863 ft | 237 kts | 304° |
| 2026-04-29 12:23 | -0.36797 | -90.42990 | 3739 ft | 233 kts | 344° |
| 2026-04-29 12:24 | -0.35199 | -90.43160 | 3627 ft | 233 kts | 7° |
| 2026-04-29 12:24 | -0.33643 | -90.42756 | 3501 ft | 230 kts | 27° |
| 2026-04-29 12:24 | -0.32339 | -90.41866 | 3383 ft | 226 kts | 49° |
| 2026-04-29 12:24 | -0.31463 | -90.40588 | 3265 ft | 222 kts | 70° |
| 2026-04-29 12:25 | -0.31130 | -90.39103 | 3143 ft | 218 kts | 92° |
| 2026-04-29 12:25 | -0.31371 | -90.37622 | 3024 ft | 216 kts | 113° |
| 2026-04-29 12:25 | -0.33256 | -90.35389 | 2740 ft | 212 kts | 145° |
| 2026-04-29 12:26 | -0.34446 | -90.34528 | 2491 ft | 210 kts | 145° |
| 2026-04-29 12:26 | -0.35624 | -90.33675 | 2225 ft | 208 kts | 145° |
| 2026-04-29 12:26 | -0.36772 | -90.32842 | 1964 ft | 206 kts | 145° |
| 2026-04-29 12:26 | -0.37925 | -90.32004 | 1692 ft | 197 kts | 146° |
| 2026-04-29 12:27 | -0.38981 | -90.31237 | 1479 ft | 183 kts | 146° |
| 2026-04-29 12:27 | -0.39973 | -90.30515 | 1216 ft | 170 kts | 146° |
| 2026-04-29 12:27 | -0.40884 | -90.29853 | 1008 ft | 154 kts | 146° |
| 2026-04-29 12:27 | -0.41718 | -90.29248 | 824 ft | 144 kts | 147° |
| 2026-04-29 12:28 | -0.42523 | -90.28664 | 645 ft | 142 kts | 147° |
| 2026-04-29 12:28 | -0.43317 | -90.28092 | 501 ft | 140 kts | 145° |
| 2026-04-29 12:28 | -0.44096 | -90.27514 | 296 ft | 139 kts | 144° |
| 2026-04-29 12:28 | -0.44861 | -90.26962 | 170 ft | 123 kts | 144° |
| 2026-04-29 12:29 | -0.45333 | -90.26619 | 178 ft | 55 kts | 144° |
| 2026-04-29 12:29 | -0.45615 | -90.26416 | 192 ft | 46 kts | 143° |
| 2026-04-29 12:29 | -0.45850 | -90.26246 | 210 ft | 38 kts | 144° |
| 2026-04-29 12:29 | -0.46052 | -90.26102 | 211 ft | 33 kts | 144° |
| 2026-04-29 12:30 | -0.46190 | -90.25999 | 210 ft | 14 kts | 137° |
| 2026-04-29 12:30 | -0.46208 | -90.25937 | 212 ft | 2 kts | 176° |
| 2026-04-29 12:30 | -0.46218 | -90.25972 | 212 ft | 11 kts | 287° |
| 2026-04-29 12:30 | -0.46148 | -90.26030 | 210 ft | 20 kts | 324° |
| 2026-04-29 12:31 | -0.45994 | -90.26142 | 212 ft | 34 kts | 324° |
| 2026-04-29 12:31 | -0.45781 | -90.26296 | 198 ft | 40 kts | 324° |
| 2026-04-29 12:31 | -0.45547 | -90.26465 | 188 ft | 43 kts | 324° |
| 2026-04-29 12:31 | -0.45298 | -90.26645 | 178 ft | 44 kts | 324° |
| 2026-04-29 12:32 | -0.45050 | -90.26824 | 174 ft | 44 kts | 324° |
| 2026-04-29 12:32 | -0.44844 | -90.26972 | 168 ft | 30 kts | 324° |
| 2026-04-29 12:32 | -0.44689 | -90.27085 | 161 ft | 23 kts | 323° |
| 2026-04-29 12:32 | -0.44580 | -90.27164 | 156 ft | 14 kts | 324° |
| 2026-04-29 12:33 | -0.44499 | -90.27181 | 152 ft | 13 kts | 31° |
| 2026-04-29 12:33 | -0.44480 | -90.27112 | 154 ft | 8 kts | 108° |
| 2026-04-29 12:33 | -0.44513 | -90.27081 | 156 ft | 6 kts | 143° |
| 2026-04-29 12:33 | -0.44540 | -90.27061 | 158 ft | 4 kts | 143° |
| 2026-04-29 12:34 | -0.44559 | -90.27047 | 159 ft | 4 kts | 144° |
| 2026-04-29 12:34 | -0.44577 | -90.27034 | 159 ft | 2 kts | 144° |
| 2026-04-29 12:34 | -0.44594 | -90.27020 | 160 ft | 4 kts | 141° |
| 2026-04-29 12:34 | -0.44605 | -90.27012 | 160 ft | 1 kts | 144° |
| 2026-04-29 12:35 | -0.44606 | -90.27012 | 160 ft | 0 kts | 144° |
| 2026-04-29 12:45 | -0.44606 | -90.27011 | 161 ft | 0 kts | 144° |